< Typhoon 195520 1955 Season Typhoon 195522 >
Typhoon 195521 (KATE)
General InformationTrack Information on Google Maps || Disaster Info.ResourceGoogle EarthGE AnimationAtom FeedGeoJSON
Detalied Best Track (Time Zone = UTC)
Year Month Day Hour Lat. Long. Pressure (hPa) Wind (kt) Class Image Chart
1955 9 18 06 10.5 143.7 1004 0 2 -- Chart
1955 9 18 12 11.0 142.0 1004 0 9 -- Chart
1955 9 18 18 12.0 140.5 1004 0 9 -- Chart
1955 9 19 00 13.1 139.3 1004 0 9 -- Chart
1955 9 19 06 13.7 138.0 1004 0 9 -- Chart
1955 9 19 12 14.3 136.6 1004 0 9 -- Chart
1955 9 19 18 14.8 135.0 1004 0 9 -- Chart
1955 9 20 00 15.5 133.6 1004 0 9 -- Chart
1955 9 20 06 15.7 132.8 1002 0 9 -- Chart
1955 9 20 12 15.9 132.0 1002 0 9 -- Chart
1955 9 20 18 16.0 131.2 1000 0 9 -- Chart
1955 9 21 00 16.0 130.3 990 0 9 -- Chart
1955 9 21 06 16.6 129.9 985 0 9 -- Chart
1955 9 21 12 16.4 128.8 985 0 9 -- Chart
1955 9 21 18 16.6 127.7 980 0 9 -- Chart
1955 9 22 00 16.7 126.5 965 0 9 -- Chart
1955 9 22 06 16.8 125.7 960 0 9 -- Chart
1955 9 22 12 16.8 125.0 960 0 9 -- Chart
1955 9 22 18 17.0 124.1 960 0 9 -- Chart
1955 9 23 00 17.5 123.0 930 0 9 -- Chart
1955 9 23 06 17.7 121.8 940 0 9 -- Chart
1955 9 23 12 17.7 120.2 960 0 9 -- Chart
1955 9 23 18 17.6 118.8 960 0 9 -- Chart
1955 9 24 00 17.6 117.5 960 0 9 -- Chart
1955 9 24 06 17.6 116.0 970 0 9 -- Chart
1955 9 24 12 17.9 114.9 980 0 9 -- Chart
1955 9 24 18 18.2 113.4 980 0 9 -- Chart
1955 9 25 00 18.4 112.2 980 0 9 -- Chart
1955 9 25 06 18.7 110.7 980 0 9 -- Chart
1955 9 25 12 18.9 109.0 980 0 9 -- Chart
1955 9 25 18 19.0 107.5 980 0 9 -- Chart
1955 9 26 00 19.0 106.2 980 0 9 -- Chart
1955 9 26 06 19.2 105.0 980 0 9 -- Chart
1955 9 26 12 19.5 104.0 985 0 9 -- Chart
Japan Meteorological Agency Best Track Data | Correction Date : 1989-06-01
< Typhoon 195520 1955 Season Typhoon 195522 >

Help